sensor_id;sensor_type;location;lat;lon;timestamp;pressure;altitude;pressure_sealevel;temperature;humidity
43161;BME280;40968;52.342;5.528;2023-02-01T00:02:12;101866.94;;;5.08;68.54
43161;BME280;40968;52.342;5.528;2023-02-01T00:04:39;101858.31;;;5.01;68.70
43161;BME280;40968;52.342;5.528;2023-02-01T00:07:06;101880.66;;;5.21;68.79
43161;BME280;40968;52.342;5.528;2023-02-01T00:09:32;101805.25;;;4.73;68.93
43161;BME280;40968;52.342;5.528;2023-02-01T00:11:59;101884.28;;;5.18;69.20
43161;BME280;40968;52.342;5.528;2023-02-01T00:14:29;101826.31;;;4.79;69.31
43161;BME280;40968;52.342;5.528;2023-02-01T00:16:57;101856.81;;;4.94;69.46
43161;BME280;40968;52.342;5.528;2023-02-01T00:19:24;101800.56;;;4.54;69.58
43161;BME280;40968;52.342;5.528;2023-02-01T00:21:50;101884.44;;;5.13;69.54
43161;BME280;40968;52.342;5.528;2023-02-01T00:24:17;101880.94;;;5.13;69.75
43161;BME280;40968;52.342;5.528;2023-02-01T00:26:44;101880.00;;;5.14;69.96
43161;BME280;40968;52.342;5.528;2023-02-01T00:29:13;101883.47;;;5.16;69.30
43161;BME280;40968;52.342;5.528;2023-02-01T00:31:42;101882.47;;;5.20;69.33
43161;BME280;40968;52.342;5.528;2023-02-01T00:34:11;101886.75;;;5.24;69.20
43161;BME280;40968;52.342;5.528;2023-02-01T00:36:39;101883.06;;;5.28;68.67
43161;BME280;40968;52.342;5.528;2023-02-01T00:39:06;101818.84;;;4.90;68.38
43161;BME280;40968;52.342;5.528;2023-02-01T00:41:33;101887.00;;;5.42;68.19
43161;BME280;40968;52.342;5.528;2023-02-01T00:43:59;101860.94;;;5.28;68.06
43161;BME280;40968;52.342;5.528;2023-02-01T00:46:26;101890.31;;;5.48;67.84
43161;BME280;40968;52.342;5.528;2023-02-01T00:48:54;101833.53;;;5.26;67.81
43161;BME280;40968;52.342;5.528;2023-02-01T00:51:23;101835.34;;;5.25;67.70
43161;BME280;40968;52.342;5.528;2023-02-01T00:53:50;101877.56;;;5.58;67.72
43161;BME280;40968;52.342;5.528;2023-02-01T00:56:17;101866.31;;;5.50;67.54
43161;BME280;40968;52.342;5.528;2023-02-01T00:58:44;101815.34;;;5.13;67.63
43161;BME280;40968;52.342;5.528;2023-02-01T01:01:12;101796.06;;;5.08;67.37
43161;BME280;40968;52.342;5.528;2023-02-01T01:03:41;101874.66;;;5.64;67.22
43161;BME280;40968;52.342;5.528;2023-02-01T01:06:10;101870.22;;;5.65;67.13
43161;BME280;40968;52.342;5.528;2023-02-01T01:08:38;101822.16;;;5.46;66.92
43161;BME280;40968;52.342;5.528;2023-02-01T01:11:06;101850.56;;;5.69;66.88
43161;BME280;40968;52.342;5.528;2023-02-01T01:13:33;101823.06;;;5.45;66.88
43161;BME280;40968;52.342;5.528;2023-02-01T01:16:01;101755.50;;;5.03;66.69
43161;BME280;40968;52.342;5.528;2023-02-01T01:18:29;101823.78;;;5.50;66.75
43161;BME280;40968;52.342;5.528;2023-02-01T01:20:55;101829.22;;;5.71;66.63
43161;BME280;40968;52.342;5.528;2023-02-01T01:23:24;101822.75;;;5.54;66.75
43161;BME280;40968;52.342;5.528;2023-02-01T01:25:50;101826.41;;;5.52;66.77
43161;BME280;40968;52.342;5.528;2023-02-01T01:28:17;101837.31;;;5.68;66.98
43161;BME280;40968;52.342;5.528;2023-02-01T01:30:44;101845.22;;;5.69;66.94
43161;BME280;40968;52.342;5.528;2023-02-01T01:33:10;101842.63;;;5.68;67.07
43161;BME280;40968;52.342;5.528;2023-02-01T01:35:37;101752.44;;;5.14;66.86
43161;BME280;40968;52.342;5.528;2023-02-01T01:38:04;101806.19;;;5.46;66.94
43161;BME280;40968;52.342;5.528;2023-02-01T01:40:32;101839.06;;;5.69;66.93
43161;BME280;40968;52.342;5.528;2023-02-01T01:42:58;101846.22;;;5.67;66.84
43161;BME280;40968;52.342;5.528;2023-02-01T01:45:26;101791.69;;;5.31;66.92
43161;BME280;40968;52.342;5.528;2023-02-01T01:47:55;101795.81;;;5.40;67.00
43161;BME280;40968;52.342;5.528;2023-02-01T01:50:25;101844.13;;;5.75;66.82
43161;BME280;40968;52.342;5.528;2023-02-01T01:52:55;101811.16;;;5.55;66.52
43161;BME280;40968;52.342;5.528;2023-02-01T01:55:25;101865.25;;;5.79;66.90
43161;BME280;40968;52.342;5.528;2023-02-01T01:57:57;101769.22;;;5.40;66.82
43161;BME280;40968;52.342;5.528;2023-02-01T02:00:25;101772.53;;;5.46;66.83
43161;BME280;40968;52.342;5.528;2023-02-01T02:02:56;101828.75;;;5.83;66.60
43161;BME280;40968;52.342;5.528;2023-02-01T02:05:25;101604.13;;;4.54;66.43
43161;BME280;40968;52.342;5.528;2023-02-01T02:07:53;101815.31;;;5.86;66.60
43161;BME280;40968;52.342;5.528;2023-02-01T02:10:23;101585.59;;;4.53;66.63
43161;BME280;40968;52.342;5.528;2023-02-01T02:13:12;101779.66;;;5.68;66.63
43161;BME280;40968;52.342;5.528;2023-02-01T02:15:43;101744.00;;;5.50;66.67
43161;BME280;40968;52.342;5.528;2023-02-01T02:18:15;101786.56;;;5.74;66.54
43161;BME280;40968;52.342;5.528;2023-02-01T02:21:05;101813.34;;;5.91;67.14
43161;BME280;40968;52.342;5.528;2023-02-01T02:26:52;101797.53;;;5.88;67.00
43161;BME280;40968;52.342;5.528;2023-02-01T02:29:49;101720.41;;;5.42;67.17
43161;BME280;40968;52.342;5.528;2023-02-01T02:32:44;101707.25;;;5.38;66.78
43161;BME280;40968;52.342;5.528;2023-02-01T02:35:26;101779.56;;;5.93;66.82
43161;BME280;40968;52.342;5.528;2023-02-01T02:38:02;101797.16;;;5.97;66.69
43161;BME280;40968;52.342;5.528;2023-02-01T02:40:37;101755.34;;;5.77;66.85
43161;BME280;40968;52.342;5.528;2023-02-01T02:43:11;101596.91;;;4.81;66.66
43161;BME280;40968;52.342;5.528;2023-02-01T02:46:01;101789.13;;;5.99;66.89
43161;BME280;40968;52.342;5.528;2023-02-01T02:48:47;101696.03;;;5.53;67.18
43161;BME280;40968;52.342;5.528;2023-02-01T02:51:21;101736.50;;;5.84;67.31
43161;BME280;40968;52.342;5.528;2023-02-01T02:54:18;101753.75;;;5.95;67.34
43161;BME280;40968;52.342;5.528;2023-02-01T02:57:07;101751.72;;;5.80;67.34
43161;BME280;40968;52.342;5.528;2023-02-01T02:59:55;101758.25;;;5.93;67.52
43161;BME280;40968;52.342;5.528;2023-02-01T03:02:40;101732.47;;;5.73;67.50
43161;BME280;40968;52.342;5.528;2023-02-01T03:05:24;101660.00;;;5.22;67.55
43161;BME280;40968;52.342;5.528;2023-02-01T03:08:02;101715.44;;;5.55;67.59
43161;BME280;40968;52.342;5.528;2023-02-01T03:10:37;101753.59;;;5.78;68.22
43161;BME280;40968;52.342;5.528;2023-02-01T03:13:10;101763.84;;;5.87;67.82
43161;BME280;40968;52.342;5.528;2023-02-01T03:15:41;101661.75;;;5.23;67.67
43161;BME280;40968;52.342;5.528;2023-02-01T03:18:12;101764.72;;;5.88;67.62
43161;BME280;40968;52.342;5.528;2023-02-01T03:20:44;101730.00;;;5.69;67.78
43161;BME280;40968;52.342;5.528;2023-02-01T03:23:17;101721.44;;;5.60;68.05
43161;BME280;40968;52.342;5.528;2023-02-01T03:25:47;101727.44;;;5.65;67.80
43161;BME280;40968;52.342;5.528;2023-02-01T03:28:15;101621.69;;;5.06;67.88
43161;BME280;40968;52.342;5.528;2023-02-01T03:30:44;101771.09;;;5.84;67.92
43161;BME280;40968;52.342;5.528;2023-02-01T03:33:13;101764.09;;;5.81;68.11
43161;BME280;40968;52.342;5.528;2023-02-01T03:35:50;101767.66;;;5.80;68.19
43161;BME280;40968;52.342;5.528;2023-02-01T03:38:24;101758.00;;;5.77;68.38
43161;BME280;40968;52.342;5.528;2023-02-01T03:40:57;101721.00;;;5.49;68.39
43161;BME280;40968;52.342;5.528;2023-02-01T03:43:29;101735.31;;;5.45;68.22
43161;BME280;40968;52.342;5.528;2023-02-01T03:46:01;101762.63;;;5.74;68.56
43161;BME280;40968;52.342;5.528;2023-02-01T03:48:30;101767.06;;;5.73;68.63
43161;BME280;40968;52.342;5.528;2023-02-01T03:51:00;101715.94;;;5.43;68.77
43161;BME280;40968;52.342;5.528;2023-02-01T03:53:30;101716.06;;;5.40;68.76
43161;BME280;40968;52.342;5.528;2023-02-01T03:55:58;101716.06;;;5.40;68.57
43161;BME280;40968;52.342;5.528;2023-02-01T03:58:24;101748.72;;;5.65;68.71
43161;BME280;40968;52.342;5.528;2023-02-01T04:00:53;101730.59;;;5.53;68.56
43161;BME280;40968;52.342;5.528;2023-02-01T04:03:21;101770.41;;;5.78;68.44
43161;BME280;40968;52.342;5.528;2023-02-01T04:05:48;101691.31;;;5.38;68.26
43161;BME280;40968;52.342;5.528;2023-02-01T04:08:14;101734.88;;;5.57;68.46
43161;BME280;40968;52.342;5.528;2023-02-01T04:10:42;101769.34;;;5.82;68.35
43161;BME280;40968;52.342;5.528;2023-02-01T04:13:09;101679.38;;;5.26;68.14
43161;BME280;40968;52.342;5.528;2023-02-01T04:15:36;101758.53;;;5.87;68.28
43161;BME280;40968;52.342;5.528;2023-02-01T04:18:03;101722.41;;;5.59;68.10
43161;BME280;40968;52.342;5.528;2023-02-01T04:20:30;101793.91;;;5.89;68.22
43161;BME280;40968;52.342;5.528;2023-02-01T04:22:56;101774.38;;;5.90;68.29
43161;BME280;40968;52.342;5.528;2023-02-01T04:25:23;101778.69;;;5.93;68.00
43161;BME280;40968;52.342;5.528;2023-02-01T04:27:51;101633.91;;;5.10;67.76
43161;BME280;40968;52.342;5.528;2023-02-01T04:30:17;101778.56;;;5.96;67.68
43161;BME280;40968;52.342;5.528;2023-02-01T04:32:44;101630.44;;;5.08;67.58
43161;BME280;40968;52.342;5.528;2023-02-01T04:35:11;101780.28;;;5.98;67.73
43161;BME280;40968;52.342;5.528;2023-02-01T04:37:37;101741.28;;;5.75;67.61
43161;BME280;40968;52.342;5.528;2023-02-01T04:40:05;101768.72;;;6.00;67.45
43161;BME280;40968;52.342;5.528;2023-02-01T04:42:32;101664.50;;;5.44;67.35
43161;BME280;40968;52.342;5.528;2023-02-01T04:45:00;101677.09;;;5.39;67.36
43161;BME280;40968;52.342;5.528;2023-02-01T04:47:26;101775.78;;;6.01;67.41
43161;BME280;40968;52.342;5.528;2023-02-01T04:49:53;101767.78;;;6.01;67.52
43161;BME280;40968;52.342;5.528;2023-02-01T04:52:19;101732.69;;;5.67;67.60
43161;BME280;40968;52.342;5.528;2023-02-01T04:54:46;101771.28;;;6.01;67.88
43161;BME280;40968;52.342;5.528;2023-02-01T04:57:12;101617.72;;;5.16;67.71
43161;BME280;40968;52.342;5.528;2023-02-01T04:59:40;101724.25;;;5.79;67.64
43161;BME280;40968;52.342;5.528;2023-02-01T05:02:08;101728.50;;;5.84;67.85
43161;BME280;40968;52.342;5.528;2023-02-01T05:04:34;101710.72;;;5.86;67.67
43161;BME280;40968;52.342;5.528;2023-02-01T05:07:01;101695.44;;;5.69;67.83
43161;BME280;40968;52.342;5.528;2023-02-01T05:09:27;101697.22;;;5.68;67.85
43161;BME280;40968;52.342;5.528;2023-02-01T05:11:54;101601.03;;;5.12;67.92
43161;BME280;40968;52.342;5.528;2023-02-01T05:14:38;101766.97;;;5.98;68.11
43161;BME280;40968;52.342;5.528;2023-02-01T05:17:05;101758.97;;;5.98;68.04
43161;BME280;40968;52.342;5.528;2023-02-01T05:19:33;101725.00;;;5.83;67.84
43161;BME280;40968;52.342;5.528;2023-02-01T05:22:00;101740.34;;;5.98;68.09
43161;BME280;40968;52.342;5.528;2023-02-01T05:24:26;101759.81;;;6.01;68.33
43161;BME280;40968;52.342;5.528;2023-02-01T05:26:53;101738.09;;;5.88;68.05
43161;BME280;40968;52.342;5.528;2023-02-01T05:29:20;101702.72;;;5.63;68.22
43161;BME280;40968;52.342;5.528;2023-02-01T05:31:47;101808.63;;;6.00;68.17
43161;BME280;40968;52.342;5.528;2023-02-01T05:34:14;101745.91;;;5.92;68.21
43161;BME280;40968;52.342;5.528;2023-02-01T05:36:42;101627.69;;;5.11;68.19
43161;BME280;40968;52.342;5.528;2023-02-01T05:39:09;101728.06;;;5.72;68.33
43161;BME280;40968;52.342;5.528;2023-02-01T05:41:36;101782.94;;;5.98;68.19
43161;BME280;40968;52.342;5.528;2023-02-01T05:44:03;101742.06;;;5.77;68.30
43161;BME280;40968;52.342;5.528;2023-02-01T05:46:30;101776.69;;;6.00;68.44
43161;BME280;40968;52.342;5.528;2023-02-01T05:48:57;101775.06;;;5.95;68.69
43161;BME280;40968;52.342;5.528;2023-02-01T05:51:24;101688.97;;;5.52;68.89
43161;BME280;40968;52.342;5.528;2023-02-01T05:53:52;101687.13;;;5.54;68.88
43161;BME280;40968;52.342;5.528;2023-02-01T05:56:18;101767.06;;;5.95;69.13
43161;BME280;40968;52.342;5.528;2023-02-01T05:58:45;101727.84;;;5.78;69.08
43161;BME280;40968;52.342;5.528;2023-02-01T06:01:12;101768.91;;;5.93;68.97
43161;BME280;40968;52.342;5.528;2023-02-01T06:03:38;101690.34;;;5.62;68.84
43161;BME280;40968;52.342;5.528;2023-02-01T06:06:05;101717.31;;;5.75;68.79
43161;BME280;40968;52.342;5.528;2023-02-01T06:08:32;101756.78;;;5.86;68.77
43161;BME280;40968;52.342;5.528;2023-02-01T06:11:01;101752.94;;;5.93;68.63
43161;BME280;40968;52.342;5.528;2023-02-01T06:13:28;101757.41;;;5.93;68.79
43161;BME280;40968;52.342;5.528;2023-02-01T06:15:54;101700.09;;;5.62;68.70
43161;BME280;40968;52.342;5.528;2023-02-01T06:18:22;101648.91;;;5.35;68.71
43161;BME280;40968;52.342;5.528;2023-02-01T06:20:52;101688.97;;;5.52;68.23
43161;BME280;40968;52.342;5.528;2023-02-01T06:23:18;101602.50;;;4.97;68.36
43161;BME280;40968;52.342;5.528;2023-02-01T06:25:49;101622.00;;;4.96;68.50
43161;BME280;40968;52.342;5.528;2023-02-01T06:28:17;101734.03;;;5.57;68.26
43161;BME280;40968;52.342;5.528;2023-02-01T06:30:44;101776.25;;;5.88;68.47
43161;BME280;40968;52.342;5.528;2023-02-01T06:33:11;101785.13;;;5.87;68.27
43161;BME280;40968;52.342;5.528;2023-02-01T06:35:40;101632.31;;;5.06;68.42
43161;BME280;40968;52.342;5.528;2023-02-01T06:38:07;101774.50;;;5.87;68.56
43161;BME280;40968;52.342;5.528;2023-02-01T06:40:33;101785.13;;;5.87;68.75
43161;BME280;40968;52.342;5.528;2023-02-01T06:43:00;101793.06;;;5.89;68.96
43161;BME280;40968;52.342;5.528;2023-02-01T06:45:28;101774.50;;;5.87;69.10
43161;BME280;40968;52.342;5.528;2023-02-01T06:47:55;101773.88;;;5.80;69.23
43161;BME280;40968;52.342;5.528;2023-02-01T06:50:21;101767.56;;;5.83;69.37
43161;BME280;40968;52.342;5.528;2023-02-01T06:52:48;101774.66;;;5.82;69.60
43161;BME280;40968;52.342;5.528;2023-02-01T06:55:15;101783.00;;;5.73;69.65
43161;BME280;40968;52.342;5.528;2023-02-01T06:57:41;101748.72;;;5.65;69.80
43161;BME280;40968;52.342;5.528;2023-02-01T07:00:09;101714.19;;;5.42;70.01
43161;BME280;40968;52.342;5.528;2023-02-01T07:02:37;101583.41;;;4.64;69.91
43161;BME280;40968;52.342;5.528;2023-02-01T07:05:05;101594.03;;;4.64;69.94
43161;BME280;40968;52.342;5.528;2023-02-01T07:07:31;101583.50;;;4.61;69.93
43161;BME280;40968;52.342;5.528;2023-02-01T07:09:58;101743.78;;;5.56;70.12
43161;BME280;40968;52.342;5.528;2023-02-01T07:12:24;101765.59;;;5.64;70.13
43161;BME280;40968;52.342;5.528;2023-02-01T07:14:51;101723.06;;;5.42;70.10
43161;BME280;40968;52.342;5.528;2023-02-01T07:17:18;101790.81;;;5.78;70.08
43161;BME280;40968;52.342;5.528;2023-02-01T07:19:45;101793.41;;;5.79;70.29
43161;BME280;40968;52.342;5.528;2023-02-01T07:22:12;101742.72;;;5.60;70.27
43161;BME280;40968;52.342;5.528;2023-02-01T07:24:39;101762.72;;;5.71;70.27
43161;BME280;40968;52.342;5.528;2023-02-01T07:27:05;101626.06;;;4.83;70.15
43161;BME280;40968;52.342;5.528;2023-02-01T07:29:32;101755.09;;;5.61;70.43
43161;BME280;40968;52.342;5.528;2023-02-01T07:31:58;101716.84;;;5.42;70.28
43161;BME280;40968;52.342;5.528;2023-02-01T07:34:25;101683.16;;;5.19;70.43
43161;BME280;40968;52.342;5.528;2023-02-01T07:36:53;101761.72;;;5.73;70.32
43161;BME280;40968;52.342;5.528;2023-02-01T07:39:20;101743.78;;;5.56;70.25
43161;BME280;40968;52.342;5.528;2023-02-01T07:41:47;101731.28;;;5.58;70.25
43161;BME280;40968;52.342;5.528;2023-02-01T07:44:13;101795.78;;;5.87;70.27
43161;BME280;40968;52.342;5.528;2023-02-01T07:46:40;101549.63;;;4.44;70.03
43161;BME280;40968;52.342;5.528;2023-02-01T07:49:08;101810.22;;;5.80;69.87
43161;BME280;40968;52.342;5.528;2023-02-01T07:51:35;101805.50;;;5.88;69.93
43161;BME280;40968;52.342;5.528;2023-02-01T07:54:03;101658.91;;;5.04;69.84
43161;BME280;40968;52.342;5.528;2023-02-01T07:56:30;101802.84;;;5.88;69.82
43161;BME280;40968;52.342;5.528;2023-02-01T07:58:56;101781.22;;;5.74;69.60
43161;BME280;40968;52.342;5.528;2023-02-01T08:01:26;101788.94;;;5.80;69.79
43161;BME280;40968;52.342;5.528;2023-02-01T08:03:54;101772.59;;;5.67;69.82
43161;BME280;40968;52.342;5.528;2023-02-01T08:06:21;101667.63;;;5.08;69.56
43161;BME280;40968;52.342;5.528;2023-02-01T08:08:49;101757.19;;;5.53;69.90
43161;BME280;40968;52.342;5.528;2023-02-01T08:11:18;101790.41;;;5.89;69.84
43161;BME280;40968;52.342;5.528;2023-02-01T08:13:45;101736.72;;;5.55;69.73
43161;BME280;40968;52.342;5.528;2023-02-01T08:16:13;101801.66;;;5.95;69.70
43161;BME280;40968;52.342;5.528;2023-02-01T08:18:41;101746.19;;;5.62;69.30
43161;BME280;40968;52.342;5.528;2023-02-01T08:21:09;101801.56;;;5.98;69.58
43161;BME280;40968;52.342;5.528;2023-02-01T08:23:37;101755.56;;;5.73;69.62
43161;BME280;40968;52.342;5.528;2023-02-01T08:26:06;101804.22;;;5.98;69.72
43161;BME280;40968;52.342;5.528;2023-02-01T08:28:34;101756.19;;;5.79;69.67
43161;BME280;40968;52.342;5.528;2023-02-01T08:31:05;101735.31;;;5.69;69.99
43161;BME280;40968;52.342;5.528;2023-02-01T08:33:32;101787.09;;;6.06;70.20
43161;BME280;40968;52.342;5.528;2023-02-01T08:36:00;101741.88;;;5.82;69.99
43161;BME280;40968;52.342;5.528;2023-02-01T08:38:27;101763.44;;;5.98;70.09
43161;BME280;40968;52.342;5.528;2023-02-01T08:40:55;101787.91;;;6.08;70.17
43161;BME280;40968;52.342;5.528;2023-02-01T08:43:22;101614.25;;;5.14;69.95
43161;BME280;40968;52.342;5.528;2023-02-01T08:45:53;101508.81;;;4.46;69.87
43161;BME280;40968;52.342;5.528;2023-02-01T08:48:21;101754.47;;;6.01;69.79
43161;BME280;40968;52.342;5.528;2023-02-01T08:50:47;101720.22;;;5.91;69.81
43161;BME280;40968;52.342;5.528;2023-02-01T08:53:14;101660.41;;;5.57;69.32
43161;BME280;40968;52.342;5.528;2023-02-01T08:55:40;101766.34;;;6.14;69.36
43161;BME280;40968;52.342;5.528;2023-02-01T08:58:07;101545.91;;;4.95;69.28
43161;BME280;40968;52.342;5.528;2023-02-01T09:00:34;101750.38;;;6.14;69.12
43161;BME280;40968;52.342;5.528;2023-02-01T09:03:02;101624.53;;;5.45;68.91
43161;BME280;40968;52.342;5.528;2023-02-01T09:05:29;101741.94;;;6.25;68.97
43161;BME280;40968;52.342;5.528;2023-02-01T09:07:55;101760.91;;;6.39;68.96
43161;BME280;40968;52.342;5.528;2023-02-01T09:10:22;101644.09;;;5.67;68.76
43161;BME280;40968;52.342;5.528;2023-02-01T09:12:48;101763.75;;;6.35;69.04
43161;BME280;40968;52.342;5.528;2023-02-01T09:15:16;101770.34;;;6.46;69.18
43161;BME280;40968;52.342;5.528;2023-02-01T09:17:43;101766.81;;;6.46;69.23
43161;BME280;40968;52.342;5.528;2023-02-01T09:20:12;101739.31;;;6.45;69.09
43161;BME280;40968;52.342;5.528;2023-02-01T09:22:40;101711.38;;;6.13;68.97
43161;BME280;40968;52.342;5.528;2023-02-01T09:25:07;101711.38;;;6.13;69.21
43161;BME280;40968;52.342;5.528;2023-02-01T09:27:34;101736.50;;;6.28;69.19
43161;BME280;40968;52.342;5.528;2023-02-01T09:30:01;101656.47;;;5.68;69.22
43161;BME280;40968;52.342;5.528;2023-02-01T09:32:27;101789.38;;;6.37;68.95
43161;BME280;40968;52.342;5.528;2023-02-01T09:34:54;101731.00;;;6.10;69.10
43161;BME280;40968;52.342;5.528;2023-02-01T09:37:22;101724.91;;;6.08;69.32
43161;BME280;40968;52.342;5.528;2023-02-01T09:39:49;101776.97;;;6.36;69.18
43161;BME280;40968;52.342;5.528;2023-02-01T09:42:31;101767.22;;;6.37;69.03
43161;BME280;40968;52.342;5.528;2023-02-01T09:45:11;101611.19;;;5.47;69.38
43161;BME280;40968;52.342;5.528;2023-02-01T09:47:44;101740.56;;;6.16;69.42
43161;BME280;40968;52.342;5.528;2023-02-01T09:50:14;101735.63;;;6.27;70.26
43161;BME280;40968;52.342;5.528;2023-02-01T09:52:48;101765.72;;;6.29;71.09
43161;BME280;40968;52.342;5.528;2023-02-01T09:55:21;101733.41;;;6.17;71.98
43161;BME280;40968;52.342;5.528;2023-02-01T09:57:53;101765.25;;;6.20;72.75
43161;BME280;40968;52.342;5.528;2023-02-01T10:00:25;101763.81;;;6.11;73.29
43161;BME280;40968;52.342;5.528;2023-02-01T10:02:54;101678.22;;;5.55;73.61
43161;BME280;40968;52.342;5.528;2023-02-01T10:05:36;101703.50;;;5.65;74.26
43161;BME280;40968;52.342;5.528;2023-02-01T10:08:17;101744.19;;;5.91;74.90
43161;BME280;40968;52.342;5.528;2023-02-01T10:10:49;101708.41;;;5.54;75.08
43161;BME280;40968;52.342;5.528;2023-02-01T10:13:31;101751.59;;;5.83;75.33
43161;BME280;40968;52.342;5.528;2023-02-01T10:16:10;101711.06;;;5.54;75.64
43161;BME280;40968;52.342;5.528;2023-02-01T10:18:51;101578.81;;;4.68;75.87
43161;BME280;40968;52.342;5.528;2023-02-01T10:21:32;101759.88;;;5.75;76.31
43161;BME280;40968;52.342;5.528;2023-02-01T10:24:28;101612.22;;;4.75;76.60
43161;BME280;40968;52.342;5.528;2023-02-01T10:27:01;101647.91;;;4.91;76.87
43161;BME280;40968;52.342;5.528;2023-02-01T10:29:34;101707.78;;;5.24;77.53
43161;BME280;40968;52.342;5.528;2023-02-01T10:32:03;101657.94;;;4.83;77.52
43161;BME280;40968;52.342;5.528;2023-02-01T10:34:36;101751.75;;;5.56;77.69
43161;BME280;40968;52.342;5.528;2023-02-01T10:37:16;101632.97;;;4.87;77.59
43161;BME280;40968;52.342;5.528;2023-02-01T10:39:46;101595.34;;;4.76;77.66
43161;BME280;40968;52.342;5.528;2023-02-01T10:42:14;101759.38;;;5.65;77.34
43161;BME280;40968;52.342;5.528;2023-02-01T10:44:43;101739.34;;;5.57;77.13
43161;BME280;40968;52.342;5.528;2023-02-01T10:47:13;101727.19;;;5.50;76.55
43161;BME280;40968;52.342;5.528;2023-02-01T10:49:44;101751.97;;;5.74;76.45
43161;BME280;40968;52.342;5.528;2023-02-01T10:52:16;101748.25;;;5.78;76.33
43161;BME280;40968;52.342;5.528;2023-02-01T10:54:46;101702.81;;;5.60;75.73
43161;BME280;40968;52.342;5.528;2023-02-01T10:57:21;101699.00;;;5.68;75.55
43161;BME280;40968;52.342;5.528;2023-02-01T10:59:48;101741.75;;;5.85;75.16
43161;BME280;40968;52.342;5.528;2023-02-01T11:02:20;101697.56;;;5.59;75.09
43161;BME280;40968;52.342;5.528;2023-02-01T11:04:58;101739.72;;;5.92;74.73
43161;BME280;40968;52.342;5.528;2023-02-01T11:07:27;101738.72;;;5.94;74.16
43161;BME280;40968;52.342;5.528;2023-02-01T11:09:56;101617.06;;;5.11;73.24
43161;BME280;40968;52.342;5.528;2023-02-01T11:12:30;101719.63;;;5.85;73.54
43161;BME280;40968;52.342;5.528;2023-02-01T11:15:01;101722.53;;;6.01;73.10
43161;BME280;40968;52.342;5.528;2023-02-01T11:17:33;101730.38;;;6.04;73.33
43161;BME280;40968;52.342;5.528;2023-02-01T11:20:01;101717.91;;;6.06;73.01
43161;BME280;40968;52.342;5.528;2023-02-01T11:22:28;101614.66;;;5.49;72.76
43161;BME280;40968;52.342;5.528;2023-02-01T11:24:58;101619.91;;;5.51;72.18
43161;BME280;40968;52.342;5.528;2023-02-01T11:27:25;101739.25;;;6.26;71.86
43161;BME280;40968;52.342;5.528;2023-02-01T11:29:56;101642.56;;;5.81;71.79
43161;BME280;40968;52.342;5.528;2023-02-01T11:32:25;101676.78;;;6.13;72.23
43161;BME280;40968;52.342;5.528;2023-02-01T11:34:54;101682.91;;;6.15;72.07
43161;BME280;40968;52.342;5.528;2023-02-01T11:37:24;101745.69;;;6.41;72.60
43161;BME280;40968;52.342;5.528;2023-02-01T11:39:57;101673.34;;;6.11;73.95
43161;BME280;40968;52.342;5.528;2023-02-01T11:42:26;101695.06;;;6.22;74.59
43161;BME280;40968;52.342;5.528;2023-02-01T11:45:18;101705.34;;;6.30;74.74
43161;BME280;40968;52.342;5.528;2023-02-01T11:47:45;101649.88;;;5.98;74.48
43161;BME280;40968;52.342;5.528;2023-02-01T11:50:15;101670.53;;;6.14;74.57
43161;BME280;40968;52.342;5.528;2023-02-01T11:52:54;101691.31;;;6.26;74.55
43161;BME280;40968;52.342;5.528;2023-02-01T11:55:38;101699.34;;;6.25;73.85
43161;BME280;40968;52.342;5.528;2023-02-01T11:58:26;101700.19;;;6.05;74.01
43161;BME280;40968;52.342;5.528;2023-02-01T12:01:17;101652.97;;;6.10;73.72
43161;BME280;40968;52.342;5.528;2023-02-01T12:04:04;101703.44;;;6.34;73.09
43161;BME280;40968;52.342;5.528;2023-02-01T12:06:46;101706.75;;;6.39;72.97
43161;BME280;40968;52.342;5.528;2023-02-01T12:09:29;101706.63;;;6.42;72.41
43161;BME280;40968;52.342;5.528;2023-02-01T12:12:08;101637.00;;;6.10;72.27
43161;BME280;40968;52.342;5.528;2023-02-01T12:14:59;101668.88;;;6.32;72.21
43161;BME280;40968;52.342;5.528;2023-02-01T12:17:53;101669.69;;;6.34;71.91
43161;BME280;40968;52.342;5.528;2023-02-01T12:20:31;101716.69;;;6.56;71.87
43161;BME280;40968;52.342;5.528;2023-02-01T12:23:10;101690.78;;;6.59;71.69
43161;BME280;40968;52.342;5.528;2023-02-01T12:25:54;101667.63;;;6.41;71.11
43161;BME280;40968;52.342;5.528;2023-02-01T12:28:51;101693.31;;;6.62;71.33
43161;BME280;40968;52.342;5.528;2023-02-01T12:31:38;101586.28;;;5.92;71.38
43161;BME280;40968;52.342;5.528;2023-02-01T12:34:25;101718.94;;;6.65;72.06
43161;BME280;40968;52.342;5.528;2023-02-01T12:37:04;101685.06;;;6.48;72.42
43161;BME280;40968;52.342;5.528;2023-02-01T12:39:39;101652.97;;;6.30;73.07
43161;BME280;40968;52.342;5.528;2023-02-01T12:42:11;101566.84;;;5.90;72.61
43161;BME280;40968;52.342;5.528;2023-02-01T12:44:48;101646.50;;;6.16;72.70
43161;BME280;40968;52.342;5.528;2023-02-01T12:47:20;101689.28;;;6.54;72.95
43161;BME280;40968;52.342;5.528;2023-02-01T12:49:53;101665.38;;;6.32;72.96
43161;BME280;40968;52.342;5.528;2023-02-01T12:52:27;101689.44;;;6.49;72.66
43161;BME280;40968;52.342;5.528;2023-02-01T12:55:04;101696.31;;;6.55;73.02
43161;BME280;40968;52.342;5.528;2023-02-01T12:57:35;101700.78;;;6.54;73.18
43161;BME280;40968;52.342;5.528;2023-02-01T13:00:13;101679.72;;;6.48;73.49
43161;BME280;40968;52.342;5.528;2023-02-01T13:02:51;101708.84;;;6.53;73.78
43161;BME280;40968;52.342;5.528;2023-02-01T13:05:20;101564.81;;;5.75;73.77
43161;BME280;40968;52.342;5.528;2023-02-01T13:07:50;101589.84;;;5.91;73.56
43161;BME280;40968;52.342;5.528;2023-02-01T13:10:18;101672.22;;;6.37;73.40
43161;BME280;40968;52.342;5.528;2023-02-01T13:12:51;101669.75;;;6.33;72.87
43161;BME280;40968;52.342;5.528;2023-02-01T13:15:25;101682.78;;;6.39;72.59
43161;BME280;40968;52.342;5.528;2023-02-01T13:17:55;101708.44;;;6.62;72.50
43161;BME280;40968;52.342;5.528;2023-02-01T13:20:29;101699.38;;;6.66;72.08
43161;BME280;40968;52.342;5.528;2023-02-01T13:23:00;101664.41;;;6.53;71.91